Time;durP1;ratioP1;P1;durP2;ratioP2;P2;SDS_P1;SDS_P2;PMS_P1;PMS_P2;Temp;Humidity;BMP_temperature;BMP_pressure;BME280_temperature;BME280_humidity;BME280_pressure;Samples;Min_cycle;Max_cycle;Signal;HPM_P1;HPM_P2
2023/07/07 00:00:53;;;;;;;0.43;0.40;;;;;;;-145.06;0.00;60892.56;5924086;23;20006;-92
2023/07/07 00:03:32;;;;;;;1.08;0.57;;;;;;;-145.06;0.00;60892.56;5924443;23;20009;-92
2023/07/07 00:06:11;;;;;;;0.52;0.40;;;;;;;-145.06;0.00;60892.56;5924513;23;20010;-92
2023/07/07 00:08:51;;;;;;;0.50;0.50;;;;;;;-145.06;0.00;60892.56;5924590;23;20029;-93
2023/07/07 00:11:30;;;;;;;0.73;0.55;;;;;;;-145.06;0.00;60892.56;5955839;23;20089;-92
2023/07/07 00:14:09;;;;;;;1.30;0.60;;;;;;;-145.06;0.00;60892.56;5924711;23;20005;-91
2023/07/07 00:16:48;;;;;;;1.93;0.70;;;;;;;-145.06;0.00;60892.56;5924758;23;20365;-93
2023/07/07 00:19:32;;;;;;;1.17;0.70;;;;;;;-145.06;0.00;60892.56;5923740;23;20436;-92
2023/07/07 00:22:12;;;;;;;0.80;0.60;;;;;;;187.52;0.00;60892.56;5924163;23;20029;-92
2023/07/07 00:24:51;;;;;;;1.00;0.63;;;;;;;-145.06;0.00;60892.56;5923512;23;20009;-91
2023/07/07 00:27:30;;;;;;;0.90;0.67;;;;;;;-145.06;0.00;60892.56;5924266;23;20005;-92
2023/07/07 00:30:10;;;;;;;0.77;0.50;;;;;;;-145.06;0.00;60892.56;5924632;23;20032;-92
2023/07/07 00:32:49;;;;;;;;;;;;;;;-145.06;0.00;60892.56;5924795;23;20432;-91
2023/07/07 00:35:28;;;;;;;0.70;0.43;;;;;;;-145.06;0.00;60892.56;5945142;23;19912;-92
2023/07/07 00:38:07;;;;;;;1.07;0.63;;;;;;;-145.06;0.00;60892.56;5924462;23;20033;-93
2023/07/07 00:40:46;;;;;;;1.13;0.52;;;;;;;-145.06;0.00;60892.56;5924204;23;20302;-92
2023/07/07 00:43:25;;;;;;;0.88;0.50;;;;;;;-145.06;0.00;60892.56;5924353;23;20314;-92
2023/07/07 00:46:05;;;;;;;0.70;0.55;;;;;;;-145.06;0.00;60892.56;5923574;23;20009;-91
2023/07/07 00:48:44;;;;;;;1.02;0.52;;;;;;;-145.06;0.00;60892.56;5944580;23;20076;-92
2023/07/07 00:51:34;;;;;;;;;;;;;;;-145.06;0.00;60892.56;5924587;23;20013;-92
2023/07/07 00:54:18;;;;;;;0.90;0.60;;;;;;;-145.06;0.00;60892.56;5955050;23;20205;-93
2023/07/07 00:56:59;;;;;;;0.70;0.60;;;;;;;-145.06;0.00;60892.56;5956049;23;20009;-92
2023/07/07 00:59:51;;;;;;;0.68;0.40;;;;;;;-145.06;0.00;60892.56;5924331;23;20001;-92
2023/07/07 01:02:30;;;;;;;1.30;0.60;;;;;;;-145.06;0.00;60892.56;5924457;23;20006;-91
2023/07/07 01:05:09;;;;;;;0.85;0.50;;;;;;;-145.06;0.00;60892.56;5924613;23;20006;-90
2023/07/07 01:07:51;;;;;;;0.52;0.50;;;;;;;-145.06;0.00;60892.56;5944966;23;20005;-92
2023/07/07 01:10:30;;;;;;;0.55;0.43;;;;;;;-145.06;0.00;60892.56;5923590;23;20010;-91
2023/07/07 01:13:09;;;;;;;0.70;0.50;;;;;;;-145.06;0.00;60892.56;5924212;23;20005;-92
2023/07/07 01:16:18;;;;;;;0.60;0.40;;;;;;;-145.06;0.00;60892.56;5945969;23;20010;-93
2023/07/07 01:19:40;;;;;;;1.13;0.60;;;;;;;-145.06;0.00;60892.56;5903673;23;20009;-91
2023/07/07 01:22:31;;;;;;;1.08;0.63;;;;;;;15.86;0.00;60892.56;5902758;23;20029;-92
2023/07/07 01:25:17;;;;;;;0.65;0.50;;;;;;;15.83;0.00;60892.56;5924692;23;20036;-91
2023/07/07 01:28:15;;;;;;;1.33;0.50;;;;;;;15.81;0.00;60892.56;5924890;23;20326;-91
2023/07/07 01:31:17;;;;;;;0.98;0.68;;;;;;;15.77;0.00;60892.56;5924019;23;20006;-90
2023/07/07 01:33:57;;;;;;;0.82;0.50;;;;;;;15.75;0.00;60892.56;5923781;23;20005;-90
2023/07/07 01:36:36;;;;;;;1.08;0.52;;;;;;;15.72;0.00;80879.06;5944904;23;20009;-91
2023/07/07 01:39:15;;;;;;;1.00;0.57;;;;;;;15.68;0.00;60892.56;5945091;23;20314;-91
2023/07/07 01:42:04;;;;;;;0.80;0.50;;;;;;;15.65;0.00;60892.56;5924062;23;20010;-90
2023/07/07 01:44:57;;;;;;;0.80;0.57;;;;;;;15.61;0.00;60892.56;5924413;23;20005;-90
2023/07/07 01:47:38;;;;;;;1.05;0.52;;;;;;;15.56;0.00;60892.56;5923487;23;20010;-91
2023/07/07 01:50:23;;;;;;;0.90;0.70;;;;;;;-145.06;0.00;60892.56;5923822;23;20013;-90
2023/07/07 01:53:08;;;;;;;1.25;0.50;;;;;;;-145.06;0.00;60892.56;5922901;23;20013;-90
2023/07/07 01:55:52;;;;;;;1.13;0.70;;;;;;;-145.06;0.00;60892.56;5923192;23;20025;-91
2023/07/07 01:58:32;;;;;;;1.05;0.60;;;;;;;-145.06;0.00;60892.56;5923695;23;20084;-91
2023/07/07 02:01:12;;;;;;;0.95;0.60;;;;;;;-145.06;0.00;60892.56;5923847;23;20006;-93
2023/07/07 02:03:51;;;;;;;1.25;0.70;;;;;;;-145.06;0.00;60892.56;5923520;23;20033;-90
2023/07/07 02:06:30;;;;;;;0.63;0.60;;;;;;;-145.06;0.00;60892.56;5923528;23;20317;-90
2023/07/07 02:09:09;;;;;;;0.80;0.50;;;;;;;-145.06;0.00;60892.56;5923385;23;20006;-91
2023/07/07 02:11:48;;;;;;;0.60;0.57;;;;;;;-145.06;0.00;60892.56;5923736;23;20009;-92
2023/07/07 02:14:27;;;;;;;0.70;0.60;;;;;;;15.35;0.00;60892.56;5923881;23;20009;-93
2023/07/07 02:17:06;;;;;;;0.80;0.60;;;;;;;-145.06;0.00;60892.56;5947561;23;20029;-92
2023/07/07 02:19:45;;;;;;;1.40;0.80;;;;;;;-145.06;0.00;60892.56;5945962;23;20006;-91
2023/07/07 02:22:25;;;;;;;1.50;0.80;;;;;;;-145.06;0.00;60892.56;5946092;23;20033;-91
2023/07/07 02:25:05;;;;;;;1.05;0.70;;;;;;;-145.06;0.00;60892.56;5925207;23;20437;-92
2023/07/07 02:27:43;;;;;;;;;;;;;;;-145.06;0.00;60892.56;5926928;23;20005;-92
2023/07/07 02:30:23;;;;;;;0.82;0.43;;;;;;;-145.06;0.00;60892.56;5946442;23;19908;-92
2023/07/07 02:33:02;;;;;;;0.60;0.40;;;;;;;-145.06;0.00;60892.56;5925849;23;20005;-92
2023/07/07 02:35:41;;;;;;;1.20;0.63;;;;;;;-145.06;0.00;60892.56;5946065;23;20245;-91
2023/07/07 02:38:20;;;;;;;1.08;0.65;;;;;;;-145.06;0.00;60892.56;5925203;23;20053;-91
2023/07/07 02:40:59;;;;;;;0.70;0.50;;;;;;;-145.06;0.00;60892.56;5926342;23;20005;-90
2023/07/07 02:43:38;;;;;;;1.02;0.60;;;;;;;-145.06;0.00;60892.56;5925080;23;20010;-93
2023/07/07 02:46:17;;;;;;;0.80;0.60;;;;;;;-145.06;0.00;60892.56;5933321;23;20010;-91
2023/07/07 02:48:56;;;;;;;0.67;0.57;;;;;;;-145.06;0.00;60892.56;5948888;23;19998;-92
2023/07/07 02:51:35;;;;;;;0.93;0.60;;;;;;;-145.06;0.00;60892.56;5955910;23;20281;-91
2023/07/07 02:54:14;;;;;;;1.10;0.70;;;;;;;-145.06;0.00;60892.56;5926658;23;20057;-92
2023/07/07 02:56:54;;;;;;;1.15;0.60;;;;;;;-145.06;0.00;60892.56;5925601;23;20001;-92
2023/07/07 02:59:32;;;;;;;;;;;;;;;-145.06;0.00;60892.56;5925383;23;20014;-91
2023/07/07 03:02:12;;;;;;;0.70;0.55;;;;;;;-145.06;0.00;60892.56;5946592;23;20331;-91
2023/07/07 03:04:51;;;;;;;1.15;0.70;;;;;;;-145.06;0.00;60892.56;5925314;23;20378;-92
2023/07/07 03:07:30;;;;;;;1.37;0.80;;;;;;;-145.06;0.00;60892.56;5946394;23;20009;-90
2023/07/07 03:10:09;;;;;;;0.60;0.50;;;;;;;-145.06;0.00;60892.56;5925382;23;20318;-91
2023/07/07 03:12:48;;;;;;;1.25;0.77;;;;;;;-145.06;0.00;60892.56;5925044;23;20010;-91
2023/07/07 03:15:29;;;;;;;1.13;0.70;;;;;;;-145.06;0.00;60892.56;5946972;23;20005;-90
2023/07/07 03:18:10;;;;;;;1.35;0.88;;;;;;;-145.06;0.00;60892.56;5925166;23;20417;-90
2023/07/07 03:20:49;;;;;;;0.90;0.80;;;;;;;-145.06;0.00;60892.56;5925490;23;20006;-90
2023/07/07 03:23:27;;;;;;;1.90;1.02;;;;;;;-145.06;0.00;60892.56;5957382;23;20009;-90
2023/07/07 03:26:14;;;;;;;1.93;0.87;;;;;;;-145.06;0.00;60892.56;5946338;23;20006;-90
2023/07/07 03:28:54;;;;;;;1.08;0.73;;;;;;;-145.06;0.00;60892.56;5946778;23;20069;-91
2023/07/07 03:31:33;;;;;;;1.42;0.80;;;;;;;-145.06;0.00;60892.56;5925420;23;20377;-92
2023/07/07 03:34:12;;;;;;;0.98;0.82;;;;;;;-145.06;0.00;60892.56;5925418;23;20009;-90
2023/07/07 03:36:51;;;;;;;1.20;0.70;;;;;;;-145.06;0.00;60892.56;5925067;23;20009;-92
2023/07/07 03:39:31;;;;;;;1.80;0.85;;;;;;;-145.06;0.00;60892.56;5924190;23;20005;-92
2023/07/07 03:42:10;;;;;;;;;;;;;;;-145.06;0.00;60892.56;5926191;23;20009;-91
2023/07/07 03:44:49;;;;;;;0.70;0.55;;;;;;;-145.06;0.00;60892.56;5945601;23;19905;-90
2023/07/07 03:47:28;;;;;;;1.02;0.73;;;;;;;-145.06;0.00;60892.56;5925359;23;20009;-91
2023/07/07 03:50:08;;;;;;;0.90;0.60;;;;;;;-145.06;0.00;60892.56;5925108;23;20001;-90
2023/07/07 03:52:47;;;;;;;1.27;0.65;;;;;;;-145.06;0.00;60892.56;5924554;23;20456;-91
2023/07/07 03:55:26;;;;;;;1.10;0.73;;;;;;;-145.06;0.00;60892.56;5924830;23;20010;-91
2023/07/07 03:58:06;;;;;;;1.52;0.55;;;;;;;-145.06;0.00;60892.56;5933994;23;20022;-91
2023/07/07 04:00:48;;;;;;;1.80;0.87;;;;;;;14.54;0.00;60892.56;5924726;23;20314;-92
2023/07/07 04:03:28;;;;;;;0.70;0.60;;;;;;;14.53;0.00;60892.56;5925226;23;20013;-92
2023/07/07 04:06:07;;;;;;;1.48;0.80;;;;;;;14.58;0.00;60892.56;5925046;23;20009;-92
2023/07/07 04:08:46;;;;;;;1.58;0.88;;;;;;;14.50;0.00;60892.56;5925097;23;20005;-93
2023/07/07 04:11:25;;;;;;;1.50;0.80;;;;;;;-145.06;0.00;60892.56;5924221;23;20006;-92
2023/07/07 04:14:04;;;;;;;0.80;0.60;;;;;;;15.88;0.00;60892.56;5924576;23;20041;-92
2023/07/07 04:16:44;;;;;;;0.73;0.57;;;;;;;14.46;0.00;60892.56;5924595;23;20316;-92
2023/07/07 04:19:23;;;;;;;1.35;0.77;;;;;;;-145.06;0.00;60892.56;5924191;23;20009;-91
2023/07/07 04:22:02;;;;;;;1.75;0.80;;;;;;;-145.06;0.00;60892.56;5924429;23;20010;-92
2023/07/07 04:24:41;;;;;;;0.83;0.63;;;;;;;14.47;0.00;80706.81;5924906;23;20006;-91
2023/07/07 04:27:20;;;;;;;1.38;0.80;;;;;;;-145.06;0.00;60892.56;5924670;23;20006;-91
2023/07/07 04:29:59;;;;;;;2.35;0.68;;;;;;;14.58;0.00;60892.56;5945682;23;20420;-91
2023/07/07 04:32:39;;;;;;;1.48;0.75;;;;;;;14.52;0.00;60892.56;5924451;23;20028;-91
2023/07/07 04:35:18;;;;;;;1.25;0.63;;;;;;;14.52;0.00;60892.56;5924195;23;20009;-91
2023/07/07 04:37:57;;;;;;;1.40;0.80;;;;;;;14.54;0.00;60892.56;5923980;23;20433;-90
2023/07/07 04:40:36;;;;;;;1.10;0.63;;;;;;;187.52;0.00;60892.56;5924719;23;20009;-92
2023/07/07 04:43:15;;;;;;;1.73;1.30;;;;;;;15.88;0.00;60892.56;5924648;23;20010;-91
2023/07/07 04:45:54;;;;;;;2.15;0.70;;;;;;;-145.06;0.00;60892.56;5923966;23;20233;-90
2023/07/07 04:48:33;;;;;;;0.77;0.60;;;;;;;-145.06;0.00;60892.56;5925014;23;20002;-92
2023/07/07 04:51:12;;;;;;;0.68;0.60;;;;;;;-145.06;0.00;60892.56;5923654;23;20005;-92
2023/07/07 04:53:51;;;;;;;0.70;0.60;;;;;;;-145.06;0.00;60892.56;5923982;23;20005;-92
2023/07/07 04:56:32;;;;;;;1.48;0.80;;;;;;;-145.06;0.00;60892.56;5923876;23;20009;-91
2023/07/07 04:59:11;;;;;;;1.15;0.68;;;;;;;-145.06;0.00;60892.56;5923970;23;20010;-91
2023/07/07 05:01:50;;;;;;;0.83;0.60;;;;;;;-145.06;0.00;60892.56;5923892;23;20302;-92
2023/07/07 05:04:29;;;;;;;1.20;0.90;;;;;;;-145.06;0.00;60892.56;5923390;23;20010;-90
2023/07/07 05:07:08;;;;;;;0.93;0.75;;;;;;;-145.06;0.00;60892.56;5923886;23;20233;-92
2023/07/07 05:09:47;;;;;;;1.05;0.70;;;;;;;-145.06;0.00;60892.56;5922673;23;20010;-92
2023/07/07 05:12:26;;;;;;;1.60;0.80;;;;;;;-145.06;0.00;60892.56;5955346;23;20010;-91
2023/07/07 05:15:06;;;;;;;0.90;0.77;;;;;;;-145.06;0.00;60892.56;5945014;23;20009;-91
2023/07/07 05:17:45;;;;;;;1.77;0.90;;;;;;;-145.06;0.00;60892.56;5923527;23;20040;-92
2023/07/07 05:20:24;;;;;;;1.25;0.70;;;;;;;-145.06;0.00;60892.56;5923458;23;20002;-92
2023/07/07 05:23:03;;;;;;;1.83;1.00;;;;;;;-145.06;0.00;60892.56;5923475;23;20010;-92
2023/07/07 05:25:44;;;;;;;0.63;0.50;;;;;;;-145.06;0.00;60892.56;5923291;23;20314;-92
2023/07/07 05:28:24;;;;;;;1.00;0.77;;;;;;;-145.06;0.00;60892.56;5924456;23;20229;-90
2023/07/07 05:31:16;;;;;;;1.20;0.70;;;;;;;-145.06;0.00;60892.56;5927550;23;20065;-91
2023/07/07 05:33:55;;;;;;;2.67;0.70;;;;;;;15.57;0.00;60892.56;5926709;23;20084;-92
2023/07/07 05:42:40;;;;;;;1.30;0.68;;;;;;;-145.06;0.00;60892.56;5966133;23;20036;-92
2023/07/07 05:45:21;;;;;;;0.70;0.67;;;;;;;-145.06;0.00;60892.56;5952015;23;20088;-92
2023/07/07 05:48:00;;;;;;;1.17;0.60;;;;;;;-145.06;0.00;60892.56;5952943;23;20323;-91
2023/07/07 05:50:41;;;;;;;0.77;0.67;;;;;;;-145.06;0.00;60892.56;5952310;23;20013;-91
2023/07/07 05:55:51;;;;;;;0.90;0.60;;;;;;;-145.06;0.00;60892.56;5943782;23;20009;-91
2023/07/07 05:58:30;;;;;;;0.85;0.70;;;;;;;-145.06;0.00;60892.56;5948140;23;20085;-92
2023/07/07 06:01:13;;;;;;;1.00;0.60;;;;;;;-145.06;0.00;60892.56;5916081;23;20444;-92
2023/07/07 06:03:52;;;;;;;1.67;0.68;;;;;;;-145.06;0.00;60892.56;5915994;23;20010;-91
2023/07/07 06:06:31;;;;;;;1.02;0.57;;;;;;;-145.06;0.00;60892.56;5895475;23;20095;-91
2023/07/07 06:09:11;;;;;;;1.08;0.82;;;;;;;-145.06;0.00;60892.56;5895934;23;20006;-91
2023/07/07 06:11:50;;;;;;;0.82;0.73;;;;;;;-145.06;0.00;60892.56;5895718;23;20262;-93
2023/07/07 06:14:29;;;;;;;0.90;0.73;;;;;;;-145.06;0.00;60892.56;5896041;23;20006;-92
2023/07/07 06:17:08;;;;;;;1.38;0.70;;;;;;;-145.06;0.00;60892.56;5895567;23;20014;-93
2023/07/07 06:19:47;;;;;;;0.90;0.68;;;;;;;-145.06;0.00;60892.56;5916726;23;20006;-92
2023/07/07 06:22:26;;;;;;;0.88;0.50;;;;;;;-145.06;0.00;60892.56;5895165;23;20010;-92
2023/07/07 06:25:06;;;;;;;0.80;0.50;;;;;;;-145.06;0.00;60892.56;5895436;23;20010;-92
2023/07/07 06:27:45;;;;;;;0.63;0.50;;;;;;;-145.06;0.00;60892.56;5895421;23;20002;-92
2023/07/07 06:30:24;;;;;;;1.70;0.63;;;;;;;-145.06;0.00;60892.56;5916853;23;20425;-93
2023/07/07 06:33:03;;;;;;;0.70;0.40;;;;;;;-145.06;0.00;60892.56;5895047;23;20326;-93
2023/07/07 06:35:43;;;;;;;1.47;0.80;;;;;;;-145.06;0.00;60892.56;5895190;23;20010;-91
2023/07/07 06:38:22;;;;;;;0.40;0.38;;;;;;;-145.06;0.00;60892.56;5895283;23;20002;-92
2023/07/07 06:41:03;;;;;;;0.50;0.40;;;;;;;-145.06;0.00;60892.56;5895335;23;20014;-92
2023/07/07 06:43:43;;;;;;;0.80;0.40;;;;;;;-145.06;0.00;60892.56;5895240;23;20010;-92
2023/07/07 06:46:25;;;;;;;1.20;0.70;;;;;;;-145.06;0.00;60892.56;5894064;23;20006;-92
2023/07/07 06:49:04;;;;;;;1.35;0.70;;;;;;;-145.06;0.00;60892.56;5895255;23;20006;-92
2023/07/07 06:51:43;;;;;;;0.73;0.52;;;;;;;-145.06;0.00;60892.56;5894949;23;20010;-92
2023/07/07 06:54:22;;;;;;;0.73;0.50;;;;;;;-145.06;0.00;60892.56;5895175;23;20010;-93
2023/07/07 06:57:02;;;;;;;1.10;0.55;;;;;;;18.01;0.00;60892.56;5895321;23;20006;-92
2023/07/07 06:59:41;;;;;;;0.65;0.40;;;;;;;-145.06;0.00;60892.56;5895428;23;20010;-93
2023/07/07 07:02:20;;;;;;;1.90;0.65;;;;;;;-145.06;0.00;60892.56;5897174;23;20006;-93
2023/07/07 07:04:59;;;;;;;0.40;0.40;;;;;;;-145.06;0.00;60892.56;5897399;23;20445;-93
2023/07/07 07:07:38;;;;;;;0.80;0.57;;;;;;;-145.06;0.00;60892.56;5896872;23;20005;-93
2023/07/07 07:10:17;;;;;;;0.60;0.50;;;;;;;-145.06;0.00;60892.56;5928288;23;20006;-92
2023/07/07 07:12:56;;;;;;;0.85;0.50;;;;;;;-145.06;0.00;60892.56;5897031;23;20261;-93
2023/07/07 07:15:35;;;;;;;0.98;0.35;;;;;;;-145.06;0.00;60892.56;5928398;23;20005;-92
2023/07/07 07:18:14;;;;;;;1.20;0.43;;;;;;;-145.06;0.00;60892.56;5897597;23;20449;-92
2023/07/07 07:20:54;;;;;;;0.68;0.50;;;;;;;-145.06;0.00;60892.56;5897173;23;20010;-93
2023/07/07 07:23:33;;;;;;;0.60;0.45;;;;;;;-145.06;0.00;60892.56;5896982;23;20318;-92
2023/07/07 07:26:13;;;;;;;0.82;0.50;;;;;;;-145.06;0.00;60892.56;5917969;23;20005;-93
2023/07/07 07:28:55;;;;;;;0.75;0.60;;;;;;;-145.06;0.00;60892.56;5917441;23;20002;-93
2023/07/07 07:31:34;;;;;;;0.85;0.60;;;;;;;-145.06;0.00;60892.56;5897476;23;20437;-93
2023/07/07 07:34:28;;;;;;;0.63;0.43;;;;;;;-145.06;0.00;60892.56;5897149;23;20010;-92
2023/07/07 07:37:07;;;;;;;0.77;0.52;;;;;;;19.68;0.00;60892.56;5897200;23;20002;-92
2023/07/07 07:39:49;;;;;;;0.93;0.50;;;;;;;-145.06;0.00;60892.56;5896935;23;20006;-93
2023/07/07 07:42:29;;;;;;;0.60;0.50;;;;;;;-145.06;0.00;60892.56;5897254;23;20324;-92
2023/07/07 07:45:18;;;;;;;0.60;0.60;;;;;;;-145.06;0.00;60892.56;5897030;23;20251;-94
2023/07/07 07:47:59;;;;;;;0.90;0.60;;;;;;;-145.06;0.00;60892.56;5917501;23;20005;-93
2023/07/07 07:50:39;;;;;;;0.40;0.40;;;;;;;-145.06;0.00;60892.56;5896933;23;20014;-93
2023/07/07 07:53:19;;;;;;;0.85;0.50;;;;;;;-145.06;0.00;60892.56;5919362;23;20010;-93
2023/07/07 07:55:58;;;;;;;0.98;0.50;;;;;;;-145.06;0.00;60892.56;5896841;23;20010;-93
2023/07/07 07:58:37;;;;;;;1.00;0.40;;;;;;;-145.06;0.00;60892.56;5897622;23;20093;-94
2023/07/07 08:01:17;;;;;;;1.50;0.47;;;;;;;-145.06;0.00;60892.56;5897517;23;20247;-94
2023/07/07 08:03:56;;;;;;;0.77;0.47;;;;;;;-145.06;0.00;60892.56;5897016;23;20010;-93
2023/07/07 08:06:36;;;;;;;0.57;0.40;;;;;;;-145.06;0.00;60892.56;5897518;23;20002;-93
2023/07/07 08:09:26;;;;;;;0.47;0.40;;;;;;;-145.06;0.00;60892.56;5897182;23;20006;-93
2023/07/07 08:12:10;;;;;;;2.53;0.47;;;;;;;-145.06;0.00;60892.56;5897275;23;20033;-93
2023/07/07 08:14:55;;;;;;;1.00;0.50;;;;;;;-145.06;0.00;60892.56;5917762;23;20002;-93
2023/07/07 08:17:37;;;;;;;0.65;0.40;;;;;;;-145.06;0.00;60892.56;5918110;23;20005;-94
2023/07/07 08:20:19;;;;;;;0.40;0.40;;;;;;;-145.06;0.00;60892.56;5897319;23;20010;-95
2023/07/07 08:23:01;;;;;;;0.40;0.30;;;;;;;22.32;0.00;60892.56;5917923;23;20010;-93
2023/07/07 08:25:52;;;;;;;;;;;;;;;;;;;;;
2023/07/07 08:28:43;;;;;;;0.50;0.40;;;;;;;-145.06;0.00;60892.56;5928974;23;20001;-94
2023/07/07 08:31:22;;;;;;;0.55;0.40;;;;;;;-145.06;0.00;60892.56;5917619;23;20382;-95
2023/07/07 08:34:02;;;;;;;;;;;;;;;-145.06;0.00;60892.56;5897536;23;20006;-94
2023/07/07 08:36:44;;;;;;;0.90;0.50;;;;;;;-145.06;0.00;60892.56;5897295;23;19905;-93
2023/07/07 08:39:25;;;;;;;0.85;0.40;;;;;;;-145.06;0.00;60892.56;5896866;23;20002;-94
2023/07/07 08:42:17;;;;;;;0.60;0.50;;;;;;;-145.06;0.00;60892.56;5896184;23;20006;-93
2023/07/07 08:45:06;;;;;;;0.95;0.40;;;;;;;-145.06;0.00;60892.56;5895910;23;20034;-93
2023/07/07 08:48:09;;;;;;;0.57;0.40;;;;;;;-145.06;0.00;60892.56;5917140;23;20009;-94
2023/07/07 08:51:00;;;;;;;0.93;0.55;;;;;;;-145.06;0.00;60892.56;5896750;23;20328;-93
2023/07/07 08:54:12;;;;;;;0.32;0.32;;;;;;;-145.06;0.00;60892.56;5896362;23;20014;-93
2023/07/07 08:57:18;;;;;;;0.35;0.32;;;;;;;-145.06;0.00;60892.56;5896622;23;20433;-92
2023/07/07 09:00:23;;;;;;;0.40;0.30;;;;;;;-145.06;0.00;60892.56;5903165;23;19990;-94
2023/07/07 09:06:01;;;;;;;0.77;0.40;;;;;;;-145.06;0.00;60892.56;5977050;23;20147;-93
2023/07/07 09:08:46;;;;;;;0.73;0.30;;;;;;;62.66;0.00;60892.56;5953344;23;20001;-92
2023/07/07 09:12:12;;;;;;;0.77;0.50;;;;;;;-145.06;0.00;60892.56;5925259;23;20006;-93
2023/07/07 09:14:55;;;;;;;0.90;0.57;;;;;;;-145.06;0.00;60892.56;5925676;23;20006;-92
2023/07/07 09:17:54;;;;;;;1.08;0.70;;;;;;;-145.06;0.00;60892.56;5924967;23;20002;-93
2023/07/07 09:20:38;;;;;;;0.40;0.30;;;;;;;-145.06;0.00;60892.56;5924541;23;20006;-93
2023/07/07 09:23:34;;;;;;;0.93;0.40;;;;;;;-145.06;0.00;60892.56;5924075;23;20325;-93
2023/07/07 09:26:36;;;;;;;0.40;0.40;;;;;;;-145.06;0.00;60892.56;5924303;23;20013;-93
2023/07/07 09:29:24;;;;;;;0.47;0.40;;;;;;;-145.06;0.00;60892.56;5923613;23;20032;-93
2023/07/07 09:32:13;;;;;;;0.90;0.57;;;;;;;-145.06;0.00;60892.56;5946079;23;20009;-92
2023/07/07 09:34:55;;;;;;;0.73;0.50;;;;;;;-145.06;0.00;60892.56;5923941;23;20005;-92
2023/07/07 09:37:44;;;;;;;1.00;0.50;;;;;;;-145.06;0.00;60892.56;5923702;23;20245;-93
2023/07/07 09:40:56;;;;;;;0.55;0.40;;;;;;;-145.06;0.00;60892.56;5924360;23;20013;-93
2023/07/07 09:43:58;;;;;;;0.30;0.30;;;;;;;-145.06;0.00;60892.56;5924045;23;20318;-93
2023/07/07 09:46:48;;;;;;;0.60;0.45;;;;;;;-145.06;0.00;60892.56;5924186;23;20006;-93
2023/07/07 09:49:51;;;;;;;0.90;0.50;;;;;;;-145.06;0.00;60892.56;5924699;23;19997;-94
2023/07/07 09:52:38;;;;;;;0.40;0.38;;;;;;;-145.06;0.00;60892.56;5924654;23;20005;-93
2023/07/07 09:55:47;;;;;;;0.60;0.40;;;;;;;-145.06;0.00;60892.56;5924455;23;20310;-93
2023/07/07 09:58:29;;;;;;;1.10;0.40;;;;;;;62.66;0.00;60892.56;5924394;23;20005;-92
2023/07/07 10:01:15;;;;;;;0.47;0.40;;;;;;;-145.06;0.00;60892.56;5924301;23;20425;-93
2023/07/07 10:04:10;;;;;;;0.57;0.50;;;;;;;-145.06;0.00;60892.56;5923914;23;20014;-94
2023/07/07 10:07:00;;;;;;;0.40;0.40;;;;;;;-145.06;0.00;60892.56;5924355;23;20006;-93
2023/07/07 10:14:46;;;;;;;0.68;0.50;;;;;;;27.19;0.00;60892.56;5973241;23;20017;-92
2023/07/07 10:17:31;;;;;;;0.60;0.40;;;;;;;27.31;0.00;60892.56;5952365;23;20009;-93
2023/07/07 10:20:13;;;;;;;0.70;0.47;;;;;;;27.38;0.00;60892.56;5952764;23;20009;-93
2023/07/07 10:22:56;;;;;;;0.80;0.60;;;;;;;-145.06;0.00;60892.56;5952134;23;20036;-92
2023/07/07 10:25:47;;;;;;;0.40;0.30;;;;;;;-145.06;0.00;60892.56;5952935;23;20080;-92
2023/07/07 10:28:33;;;;;;;0.50;0.40;;;;;;;-145.06;0.00;60892.56;5952405;23;20005;-92
2023/07/07 10:31:37;;;;;;;0.70;0.50;;;;;;;-145.06;0.00;60892.56;5984546;23;20001;-93
2023/07/07 10:34:30;;;;;;;0.57;0.40;;;;;;;-145.06;0.00;60892.56;5952161;23;20542;-92
2023/07/07 10:37:50;;;;;;;0.60;0.35;;;;;;;-145.06;0.00;60892.56;5954396;23;20005;-93
2023/07/07 10:41:06;;;;;;;;;;;;;;;;;;;;;
2023/07/07 10:44:08;;;;;;;0.60;0.40;;;;;;;-145.06;0.00;60892.56;5978733;23;20282;-93
2023/07/07 10:46:53;;;;;;;0.75;0.30;;;;;;;-145.06;0.00;60892.56;5955554;23;20009;-92
2023/07/07 10:49:49;;;;;;;0.85;0.47;;;;;;;-145.06;0.00;60892.56;5955922;23;20310;-92
2023/07/07 10:53:09;;;;;;;0.50;0.40;;;;;;;-145.06;0.00;60892.56;5956281;23;20009;-92
2023/07/07 10:56:21;;;;;;;;;;;;;;;-145.06;0.00;60892.56;5956244;23;20304;-92
2023/07/07 10:59:36;;;;;;;;;;;;;;;;;;;;;
2023/07/07 11:02:38;;;;;;;0.20;0.20;;;;;;;-145.06;0.00;60892.56;5987178;23;20005;-92
2023/07/07 11:05:39;;;;;;;0.40;0.30;;;;;;;-145.06;0.00;60892.56;5954374;23;20005;-93
2023/07/07 11:12:18;;;;;;;0.50;0.45;;;;;;;-145.06;0.00;60892.56;5985973;23;20009;-93
2023/07/07 11:15:00;;;;;;;0.50;0.40;;;;;;;-145.06;0.00;60892.56;5954390;23;20008;-93
2023/07/07 11:18:00;;;;;;;0.63;0.45;;;;;;;-145.06;0.00;60892.56;5954025;23;20001;-93
2023/07/07 11:20:52;;;;;;;0.28;0.22;;;;;;;-145.06;0.00;60892.56;5954442;23;20024;-93
2023/07/07 11:23:47;;;;;;;0.45;0.30;;;;;;;-145.06;0.00;60892.56;5955492;23;20001;-91
2023/07/07 11:26:35;;;;;;;0.20;0.20;;;;;;;-145.06;0.00;60892.56;5954042;23;20009;-93
2023/07/07 11:29:40;;;;;;;;;;;;;;;;;;;;;
2023/07/07 11:32:45;;;;;;;0.40;0.28;;;;;;;-145.06;0.00;60892.56;5987053;23;20428;-93
2023/07/07 11:35:49;;;;;;;0.35;0.30;;;;;;;-145.06;0.00;60892.56;5953395;23;20001;-93
2023/07/07 11:38:53;;;;;;;0.80;0.40;;;;;;;-145.06;0.00;60892.56;5952382;23;20013;-92
2023/07/07 11:42:00;;;;;;;0.28;0.20;;;;;;;-145.06;0.00;60892.56;5953947;23;20028;-92
2023/07/07 11:44:57;;;;;;;0.40;0.32;;;;;;;-145.06;0.00;60892.56;5953498;23;20104;-94
2023/07/07 11:48:07;;;;;;;0.43;0.20;;;;;;;-145.06;0.00;60892.56;5952943;23;20004;-92
2023/07/07 11:51:01;;;;;;;0.50;0.28;;;;;;;-145.06;0.00;60892.56;5952828;23;20020;-92
2023/07/07 11:54:16;;;;;;;1.40;0.40;;;;;;;-145.06;0.00;60892.56;5953744;23;20033;-92
2023/07/07 11:57:11;;;;;;;0.47;0.20;;;;;;;-145.06;0.00;60892.56;5953627;23;20005;-93
2023/07/07 12:00:29;;;;;;;0.30;0.30;;;;;;;-145.06;0.00;60892.56;5952949;23;20009;-92
2023/07/07 12:03:28;;;;;;;0.40;0.30;;;;;;;-145.06;0.00;60892.56;5945387;23;20005;-92
2023/07/07 12:06:45;;;;;;;;;;;;;;;;;;;;;
2023/07/07 12:09:46;;;;;;;0.32;0.30;;;;;;;-145.06;0.00;60892.56;5984845;23;20001;-95
2023/07/07 12:12:54;;;;;;;;;;;;;;;;;;;;;
2023/07/07 12:15:37;;;;;;;0.35;0.30;;;;;;;30.75;0.00;60892.56;5984861;23;20009;-92
2023/07/07 12:18:23;;;;;;;0.50;0.40;;;;;;;-145.06;0.00;60892.56;5952891;23;20435;-91
2023/07/07 12:21:20;;;;;;;0.50;0.40;;;;;;;-145.06;0.00;60892.56;5952458;23;20009;-93
2023/07/07 12:24:07;;;;;;;0.40;0.40;;;;;;;-145.06;0.00;60892.56;5975037;23;20008;-93
2023/07/07 12:27:00;;;;;;;0.57;0.47;;;;;;;-145.06;0.00;60892.56;5952456;23;20412;-93
2023/07/07 12:29:43;;;;;;;0.40;0.32;;;;;;;-145.06;0.00;60892.56;5965240;23;20005;-93
2023/07/07 12:32:22;;;;;;;0.50;0.40;;;;;;;-145.06;0.00;60892.56;5976463;23;20001;-94
2023/07/07 12:35:14;;;;;;;0.30;0.25;;;;;;;-145.06;0.00;60892.56;5965175;23;20306;-92
2023/07/07 12:37:55;;;;;;;0.50;0.30;;;;;;;31.22;0.00;60892.56;5953031;23;20009;-92
2023/07/07 12:40:42;;;;;;;0.47;0.30;;;;;;;-145.06;0.00;60892.56;5953093;23;20005;-93
2023/07/07 12:43:36;;;;;;;0.30;0.28;;;;;;;-145.06;0.00;60892.56;5952734;23;20009;-92
2023/07/07 12:46:35;;;;;;;0.40;0.30;;;;;;;-145.06;0.00;60892.56;5952888;23;20440;-93
2023/07/07 12:49:23;;;;;;;0.35;0.32;;;;;;;-145.06;0.00;60892.56;5952195;23;19997;-92
2023/07/07 12:52:22;;;;;;;0.95;0.47;;;;;;;-145.06;0.00;60892.56;5953582;23;20020;-94
2023/07/07 12:55:28;;;;;;;0.65;0.30;;;;;;;31.77;0.00;60892.56;5953272;23;20005;-93
2023/07/07 12:58:12;;;;;;;0.63;0.40;;;;;;;-145.06;0.00;60892.56;5952654;23;20009;-93
2023/07/07 13:01:26;;;;;;;0.75;0.50;;;;;;;-145.06;0.00;60892.56;5952852;23;20009;-92
2023/07/07 13:04:07;;;;;;;0.82;0.40;;;;;;;-145.06;0.00;60892.56;5952768;23;20005;-93
2023/07/07 13:07:03;;;;;;;1.20;0.60;;;;;;;-145.06;0.00;60892.56;5951189;23;20005;-93
2023/07/07 13:09:48;;;;;;;0.50;0.40;;;;;;;-145.06;0.00;60892.56;5951794;23;20001;-92
2023/07/07 13:12:47;;;;;;;0.60;0.30;;;;;;;-145.06;0.00;60892.56;5952607;23;20009;-93
2023/07/07 13:15:30;;;;;;;0.90;0.40;;;;;;;-145.06;0.00;60892.56;5951988;23;20032;-93
2023/07/07 13:18:15;;;;;;;0.70;0.43;;;;;;;-145.06;0.00;60892.56;5952602;23;20009;-92
2023/07/07 13:28:34;;;;;;;0.40;0.38;;;;;;;-145.06;0.00;60892.56;5960287;23;19928;-93
2023/07/07 15:06:43;;;;;;;0.40;0.32;;;;;;;-145.06;0.00;60892.56;5956293;23;20060;-90